6Y0 weather

Moorestown Airpark
Moorestown, Michigan, United States

Public forecast

Using degrees Fahrenheit for public forecast. Weather courtesy of forecast.io.

METAR (pilot weather report)

Closest report is Roscommon County - Blodgett Memorial Airport, 15.2 nm (28.2 km) ESE. Retrieved 2019/06/25 15:53 UTC (1 hour ago):

KHTL 251553Z AUTO 25011G20KT 10SM SCT029 BKN038 21/14 A2981 RMK AO2 SLP091 T02110139

TAF (pilot weather forecast)

Closest forecast is Cherry Capital Airport, 30.1 nm (55.8 km) NW. Retrieved 2019/06/25 12:22 UTC (5 hours ago):

TAF KTVC 251120Z 2512/2612 25010KT P6SM BKN035 OVC050 FM251400 25011KT P6SM SCT200 FM252000 23014G22KT P6SM SCT080 FM252300 23015KT P6SM FEW050 FM260000 23015KT P6SM VCSH SCT040 FM260300 23010KT P6SM FEW060 FM261100 25008KT P6SM FEW250